• Join FlightAware (Why Join?)
  • Login
  • US Flag 
08:54PM EDT


 

Airport Tracker/Info


-or-


 

Live Flight TrackerFlight Track Log ✈ ASQ4209 ✈ 15-Nov-2013 ✈ KIAH - KBTR

Flight Track Log - Related Links

Times and Time Zones

All times are in EST time to prevent confusion due to time zone crossing. See the ASQ4209 flight status page for this flight to view local times or setup timezone preferences in your user account.

Time Position Orientation Groundspeed Altitude Reporting Facility
EST Latitude Longitude Course Direction KTS MPH feet Rate Location/Type
01:55PM 29.9639 -95.3433 77° East 190 219 600  Level Houston Center
01:56PM 29.9203 -95.2919 134° Southeast 218 251 2,500 1,800 Climbing Houston Center
01:56PM 29.9075 -95.2778 136° Southeast 240 276 3,000 2,220 Climbing Houston Center
01:57PM 29.8717 -95.2333 133° Southeast 239 275 4,800 2,220 Climbing Houston Center
01:57PM 29.8622 -95.2206 130° Southeast 280 322 5,100 2,820 Climbing Houston Center
01:58PM 30.0524 -94.8749 90° East  Level Estimated
01:58PM 29.8400 -95.1414 108° East 282 325 7,800  Level Houston Center
01:59PM 30.0691 -94.7582 90° East  Level Estimated
01:59PM 29.8542 -95.0619 78° East 296 341 9,500  Level Houston Center
01:59PM 29.8594 -95.0331 78° East 312 359 10,000 1,320 Climbing Houston Center
02:00PM 30.0858 -94.6414 77° East  Level Estimated
02:00PM 29.8786 -94.9364 77° East 334 384 10,900  Level Houston Center
02:01PM 29.9019 -94.8150 77° East 379 436 12,100 1,200 Climbing Houston Center
02:02PM 29.9256 -94.6919 77° East 391 450 13,400 1,200 Climbing Houston Center
02:03PM 29.9483 -94.5675 78° East 396 456 14,600 1,200 Climbing Houston Center
02:04PM 29.9742 -94.4294 78° East 400 460 16,000 1,200 Climbing Houston Center
02:05PM 29.9981 -94.3017 78° East 406 467 17,200 1,140 Climbing Houston Center
02:06PM 30.0139 -94.1700 82° East 413 475 18,400 1,140 Climbing Houston Center
02:07PM 30.0303 -94.0383 82° East 416 479 19,600 1,200 Climbing Houston Center
02:08PM 30.0472 -93.9028 82° East 425 489 20,900 1,320 Climbing Houston Center
02:09PM 30.0669 -93.7397 82° East 429 494 22,400 960 Climbing Houston Center
02:10PM 30.0831 -93.6042 82° East 430 495 23,000 240 Climbing Houston Center
02:11PM 30.1003 -93.4603 82° East 454 522 23,000  Level Houston Center
02:12PM 30.1178 -93.3106 82° East 474 545 23,000  Level Houston Center
02:13PM 30.1406 -93.1264 82° East 486 559 23,000  Level Houston Center
02:14PM 30.1686 -92.9725 78° East 492 566 23,000  Level Houston Center
02:15PM 30.1983 -92.8194 77° East 492 566 23,000  Level Houston Center
02:16PM 30.2283 -92.6664 77° East 492 566 23,000  Level Houston Center
02:17PM 30.2575 -92.5142 77° East 488 562 23,000 -120 Level Houston Center
02:18PM 30.2922 -92.3306 78° East 488 562 22,800 -1,260 Descending Houston Center
02:20PM 30.3222 -92.1744 77° East 478 550 20,400 -2,580 Descending Houston Center
02:21PM 30.3500 -92.0311 77° East 462 532 17,500 -2,880 Descending Houston Center
02:22PM 30.3744 -91.8969 78° East 434 499 14,500 -2,700 Descending Houston Center
02:23PM 30.3983 -91.7692 78° East 413 475 11,900 -1,680 Descending Houston Center
02:24PM 30.4228 -91.6403 78° East 368 423 11,000 -1,260 Descending Houston Center
02:25PM 30.4411 -91.5408 78° East 324 373 9,300 -1,920 Descending Houston Center
02:26PM 30.4453 -91.4447 87° East 303 349 7,100 -1,800 Descending Houston Center
02:27PM 30.4625 -91.3686 75° East 267 307 5,700 -1,320 Descending Houston Center
02:28PM 30.5114 -91.3294 35° Northeast 229 264 4,400 -840 Descending Houston Center
02:29PM 30.5667 -91.3122 15° North 198 228 4,000 -420 Descending Houston Center